sensor_id;sensor_type;location;lat;lon;timestamp;P1;durP1;ratioP1;P2;durP2;ratioP2
12373;SDS011;6251;51.762;8.660;2023-01-23T05:05:30;17.30;;;9.17;;
12373;SDS011;6251;51.762;8.660;2023-01-23T05:15:30;19.43;;;9.30;;
12373;SDS011;6251;51.762;8.660;2023-01-23T05:25:31;16.20;;;8.80;;
12373;SDS011;6251;51.762;8.660;2023-01-23T05:35:31;16.20;;;8.97;;
12373;SDS011;6251;51.762;8.660;2023-01-23T05:45:32;19.20;;;9.57;;
12373;SDS011;6251;51.762;8.660;2023-01-23T05:55:33;17.60;;;9.37;;
12373;SDS011;6251;51.762;8.660;2023-01-23T06:05:54;19.13;;;9.07;;
12373;SDS011;6251;51.762;8.660;2023-01-23T06:15:55;15.27;;;8.77;;
12373;SDS011;6251;51.762;8.660;2023-01-23T06:26:00;18.07;;;9.80;;
12373;SDS011;6251;51.762;8.660;2023-01-23T06:36:03;15.67;;;8.60;;
12373;SDS011;6251;51.762;8.660;2023-01-23T06:46:06;15.17;;;8.67;;
12373;SDS011;6251;51.762;8.660;2023-01-23T06:56:08;20.00;;;9.70;;
12373;SDS011;6251;51.762;8.660;2023-01-23T07:06:10;16.70;;;8.90;;
12373;SDS011;6251;51.762;8.660;2023-01-23T07:16:12;17.23;;;9.90;;
12373;SDS011;6251;51.762;8.660;2023-01-23T07:26:12;16.30;;;8.43;;
12373;SDS011;6251;51.762;8.660;2023-01-23T07:36:13;14.73;;;8.70;;
12373;SDS011;6251;51.762;8.660;2023-01-23T07:46:14;15.87;;;9.07;;
12373;SDS011;6251;51.762;8.660;2023-01-23T07:56:14;16.53;;;8.80;;
12373;SDS011;6251;51.762;8.660;2023-01-23T08:06:27;16.93;;;8.70;;
12373;SDS011;6251;51.762;8.660;2023-01-23T08:16:28;17.30;;;9.63;;
12373;SDS011;6251;51.762;8.660;2023-01-23T08:26:28;16.47;;;9.53;;
12373;SDS011;6251;51.762;8.660;2023-01-23T08:36:29;15.87;;;9.63;;
12373;SDS011;6251;51.762;8.660;2023-01-23T08:46:30;18.73;;;10.73;;
12373;SDS011;6251;51.762;8.660;2023-01-23T08:56:30;17.63;;;10.30;;
12373;SDS011;6251;51.762;8.660;2023-01-23T09:06:31;16.17;;;9.77;;
12373;SDS011;6251;51.762;8.660;2023-01-23T09:16:32;16.27;;;9.63;;
12373;SDS011;6251;51.762;8.660;2023-01-23T09:26:32;18.13;;;10.77;;
12373;SDS011;6251;51.762;8.660;2023-01-23T09:36:33;17.93;;;10.23;;
12373;SDS011;6251;51.762;8.660;2023-01-23T09:46:35;16.83;;;9.33;;
12373;SDS011;6251;51.762;8.660;2023-01-23T09:56:42;16.60;;;9.63;;
12373;SDS011;6251;51.762;8.660;2023-01-23T10:27:36;13.53;;;8.93;;
12373;SDS011;6251;51.762;8.660;2023-01-23T10:37:44;15.27;;;9.30;;
12373;SDS011;6251;51.762;8.660;2023-01-23T10:47:51;13.10;;;8.50;;
12373;SDS011;6251;51.762;8.660;2023-01-23T10:57:52;15.07;;;8.73;;
12373;SDS011;6251;51.762;8.660;2023-01-23T11:07:54;15.00;;;9.23;;
12373;SDS011;6251;51.762;8.660;2023-01-23T11:17:56;15.03;;;9.50;;
12373;SDS011;6251;51.762;8.660;2023-01-23T11:27:59;19.67;;;10.63;;
12373;SDS011;6251;51.762;8.660;2023-01-23T11:38:02;21.27;;;13.87;;
12373;SDS011;6251;51.762;8.660;2023-01-23T11:58:39;16.27;;;10.48;;
12373;SDS011;6251;51.762;8.660;2023-01-23T12:08:48;15.13;;;10.10;;
12373;SDS011;6251;51.762;8.660;2023-01-23T12:19:26;17.60;;;10.87;;
12373;SDS011;6251;51.762;8.660;2023-01-23T12:30:03;17.67;;;10.90;;
12373;SDS011;6251;51.762;8.660;2023-01-23T12:40:10;19.13;;;10.03;;
12373;SDS011;6251;51.762;8.660;2023-01-23T12:50:23;20.85;;;12.82;;
12373;SDS011;6251;51.762;8.660;2023-01-23T13:10:55;18.67;;;11.93;;
12373;SDS011;6251;51.762;8.660;2023-01-23T13:21:23;16.40;;;10.27;;
12373;SDS011;6251;51.762;8.660;2023-01-23T13:31:43;20.87;;;11.77;;
12373;SDS011;6251;51.762;8.660;2023-01-23T13:41:46;20.13;;;11.33;;
12373;SDS011;6251;51.762;8.660;2023-01-23T14:13:17;21.67;;;12.77;;
12373;SDS011;6251;51.762;8.660;2023-01-23T14:33:50;22.87;;;12.17;;
12373;SDS011;6251;51.762;8.660;2023-01-23T14:44:05;23.83;;;12.93;;
12373;SDS011;6251;51.762;8.660;2023-01-23T14:54:16;22.93;;;11.73;;
12373;SDS011;6251;51.762;8.660;2023-01-23T15:04:18;25.03;;;12.10;;
12373;SDS011;6251;51.762;8.660;2023-01-23T15:14:27;23.73;;;11.50;;
12373;SDS011;6251;51.762;8.660;2023-01-23T15:24:34;25.80;;;13.00;;
12373;SDS011;6251;51.762;8.660;2023-01-23T15:34:35;24.13;;;12.63;;
12373;SDS011;6251;51.762;8.660;2023-01-23T15:44:35;27.50;;;13.67;;
12373;SDS011;6251;51.762;8.660;2023-01-23T15:54:36;25.10;;;13.03;;
12373;SDS011;6251;51.762;8.660;2023-01-23T16:04:37;24.37;;;11.97;;
12373;SDS011;6251;51.762;8.660;2023-01-23T16:14:37;25.13;;;12.60;;
12373;SDS011;6251;51.762;8.660;2023-01-23T16:24:38;26.80;;;14.03;;
12373;SDS011;6251;51.762;8.660;2023-01-23T16:34:40;26.40;;;12.60;;
12373;SDS011;6251;51.762;8.660;2023-01-23T16:44:40;26.23;;;13.27;;
12373;SDS011;6251;51.762;8.660;2023-01-23T16:54:41;22.50;;;11.93;;
12373;SDS011;6251;51.762;8.660;2023-01-23T17:04:42;22.87;;;12.57;;
12373;SDS011;6251;51.762;8.660;2023-01-23T17:14:43;21.07;;;12.07;;
12373;SDS011;6251;51.762;8.660;2023-01-23T17:24:46;26.87;;;13.93;;
12373;SDS011;6251;51.762;8.660;2023-01-23T17:34:46;27.70;;;14.40;;
12373;SDS011;6251;51.762;8.660;2023-01-23T17:44:47;24.13;;;12.60;;
12373;SDS011;6251;51.762;8.660;2023-01-23T17:54:48;24.80;;;12.07;;
12373;SDS011;6251;51.762;8.660;2023-01-23T18:04:49;23.43;;;11.70;;
12373;SDS011;6251;51.762;8.660;2023-01-23T18:14:51;19.60;;;11.33;;
12373;SDS011;6251;51.762;8.660;2023-01-23T18:24:59;25.07;;;13.83;;
12373;SDS011;6251;51.762;8.660;2023-01-23T18:35:09;25.23;;;11.87;;
12373;SDS011;6251;51.762;8.660;2023-01-23T18:45:18;24.00;;;12.10;;
12373;SDS011;6251;51.762;8.660;2023-01-23T19:05:44;37.47;;;17.20;;
12373;SDS011;6251;51.762;8.660;2023-01-23T19:26:04;21.40;;;11.27;;
12373;SDS011;6251;51.762;8.660;2023-01-23T19:36:08;24.00;;;11.10;;
12373;SDS011;6251;51.762;8.660;2023-01-23T19:46:11;22.83;;;12.10;;
12373;SDS011;6251;51.762;8.660;2023-01-23T19:56:13;32.77;;;17.00;;
12373;SDS011;6251;51.762;8.660;2023-01-23T20:06:16;23.67;;;12.53;;
12373;SDS011;6251;51.762;8.660;2023-01-23T20:16:18;22.10;;;11.00;;
12373;SDS011;6251;51.762;8.660;2023-01-23T20:26:20;22.57;;;11.17;;
12373;SDS011;6251;51.762;8.660;2023-01-23T20:36:22;22.10;;;11.40;;
12373;SDS011;6251;51.762;8.660;2023-01-23T20:46:22;24.63;;;12.47;;
12373;SDS011;6251;51.762;8.660;2023-01-23T20:56:23;25.90;;;12.00;;
12373;SDS011;6251;51.762;8.660;2023-01-23T21:06:26;25.17;;;13.13;;
12373;SDS011;6251;51.762;8.660;2023-01-23T21:16:27;22.90;;;11.90;;
12373;SDS011;6251;51.762;8.660;2023-01-23T21:26:27;18.80;;;10.07;;
12373;SDS011;6251;51.762;8.660;2023-01-23T21:36:28;19.73;;;10.47;;
12373;SDS011;6251;51.762;8.660;2023-01-23T21:46:29;20.20;;;12.07;;
12373;SDS011;6251;51.762;8.660;2023-01-23T21:56:30;17.27;;;8.87;;
12373;SDS011;6251;51.762;8.660;2023-01-23T22:06:30;16.13;;;9.23;;
